This is the latest recevied weather packets stored in our database for station/object KA0EGE. If no packets are shown the sender has not sent any weather packets the latest 10 day(s).
| Time | Temp. | Humidity | Pressure | Rain* | Wind** | Luminosity | Snow |
|---|---|---|---|---|---|---|---|
| 1777851450 | 22.78° C | 39% | 1019.9 hPa | 0 mm | - | 33 W/m² | - |
| 1777851146 | 23.33° C | 38% | 1019.8 hPa | 0 mm | - | 36 W/m² | - |
| 1777850843 | 23.33° C | 36% | 1019.8 hPa | 0 mm | - | 38 W/m² | - |
| 1777850540 | 23.33° C | 37% | 1019.8 hPa | 0 mm | - | 41 W/m² | - |
| 1777850239 | 23.89° C | 35% | 1020 hPa | 0 mm | - | 91 W/m² | - |
| 1777849935 | 24.44° C | 39% | 1019.6 hPa | 0 mm | - | 104 W/m² | - |
| 1777849631 | 24.44° C | 36% | 1019.8 hPa | 0 mm | - | 118 W/m² | - |
| 1777849329 | 23.89° C | 35% | 1019.7 hPa | 0 mm | - | 132 W/m² | - |
| 1777849025 | 23.89° C | 35% | 1019.7 hPa | 0 mm | - | 147 W/m² | - |
| 1777848720 | 23.89° C | 35% | 1019.6 hPa | 0 mm | - | 162 W/m² | - |
| 1777848418 | 23.89° C | 35% | 1019.7 hPa | 0 mm | - | 178 W/m² | - |
| 1777848115 | 23.89° C | 34% | 1019.9 hPa | 0 mm | - | 194 W/m² | - |
| 1777847813 | 23.89° C | 35% | 1019.9 hPa | 0 mm | - | 211 W/m² | - |
| 1777847509 | 24.44° C | 34% | 1019.9 hPa | 0 mm | - | 228 W/m² | - |
| 1777847207 | 25° C | 32% | 1019.9 hPa | 0 mm | - | 246 W/m² | - |
| 1777846904 | 24.44° C | 36% | 1019.9 hPa | 0 mm | - | 262 W/m² | - |
| 1777846603 | 24.44° C | 35% | 1019.9 hPa | 0 mm | - | 280 W/m² | - |
| 1777846300 | 24.44° C | 33% | 1020 hPa | 0 mm | - | 299 W/m² | - |
| 1777845996 | 24.44° C | 32% | 1020 hPa | 0 mm | - | 316 W/m² | - |
| 1777845693 | 24.44° C | 34% | 1019.9 hPa | 0 mm | - | 334 W/m² | - |
| 1777845390 | 24.44° C | 32% | 1020 hPa | 0 mm | - | 352 W/m² | - |
| 1777845086 | 25° C | 32% | 1020.2 hPa | 0 mm | - | 370 W/m² | - |
| 1777844785 | 24.44° C | 32% | 1020 hPa | 0 mm | - | 387 W/m² | - |
| 1777844481 | 25° C | 30% | 1020.1 hPa | 0 mm | - | 409 W/m² | - |
| 1777844180 | 25° C | 31% | 1020 hPa | 0 mm | - | 427 W/m² | - |
* Rain latest hour (hover to see other rain measurements)
** Current wind speed in m/s (hover to see current wind gust speed)